Jersey City, New Jersey
Current Conditions -  °F | °C
As of 5:51 AM on Friday 31 Oct 2014 (Local Time) from KNYC Reporting Station
Broken Clouds Broken Clouds  
Wind Chill: 42°   Ceiling: 4700
Heat Index: 46°   Visibility: 10mi
Dew Point: 32°   Wind: 7mph
Humidity: 58%   Direction: NA
Pressure: 30.04"   Gusts: NA
Location:  40.72°N, 74.04°W
Report Text: KNYC 310951Z AUTO VRB06KT 10SM BKN047 08/00 A3004 RMK AO2 SLP163 T00780000 $
Loading
Personal Weather Stations






























Interactive Weather Map
Tropical Storm Tracking
New forecast layout! Learn more

10-Day Weather Forecast

Advertisements
Track Severe Weather on mobile